sensor_id;sensor_type;location;lat;lon;timestamp;pressure;altitude;pressure_sealevel;temperature;humidity
24558;BME280;12726;49.148;8.582;2023-08-30T00:01:46;99737.50;;;14.33;100.00
24558;BME280;12726;49.148;8.582;2023-08-30T00:04:32;99736.66;;;14.32;100.00
24558;BME280;12726;49.148;8.582;2023-08-30T00:07:17;99725.25;;;14.30;100.00
24558;BME280;12726;49.148;8.582;2023-08-30T00:10:03;99740.16;;;14.28;100.00
24558;BME280;12726;49.148;8.582;2023-08-30T00:12:50;99726.03;;;14.26;100.00
24558;BME280;12726;49.148;8.582;2023-08-30T00:15:35;99731.94;;;14.23;100.00
24558;BME280;12726;49.148;8.582;2023-08-30T00:18:20;99737.69;;;14.26;100.00
24558;BME280;12726;49.148;8.582;2023-08-30T00:21:06;99737.69;;;14.26;100.00
24558;BME280;12726;49.148;8.582;2023-08-30T00:23:51;99741.47;;;14.25;100.00
24558;BME280;12726;49.148;8.582;2023-08-30T00:26:37;99742.78;;;14.23;100.00
24558;BME280;12726;49.148;8.582;2023-08-30T00:29:24;99739.53;;;14.21;100.00
24558;BME280;12726;49.148;8.582;2023-08-30T00:32:09;99740.31;;;14.21;100.00
24558;BME280;12726;49.148;8.582;2023-08-30T00:34:55;99741.41;;;14.20;100.00
24558;BME280;12726;49.148;8.582;2023-08-30T00:37:40;99729.75;;;14.20;100.00
24558;BME280;12726;49.148;8.582;2023-08-30T00:40:26;99730.56;;;14.20;100.00
24558;BME280;12726;49.148;8.582;2023-08-30T00:43:11;99722.69;;;14.19;100.00
24558;BME280;12726;49.148;8.582;2023-08-30T00:45:58;99722.69;;;14.19;100.00
24558;BME280;12726;49.148;8.582;2023-08-30T00:48:43;99720.00;;;14.19;100.00
24558;BME280;12726;49.148;8.582;2023-08-30T00:51:30;99720.00;;;14.19;100.00
24558;BME280;12726;49.148;8.582;2023-08-30T00:54:16;99712.69;;;14.19;100.00
24558;BME280;12726;49.148;8.582;2023-08-30T00:57:01;99722.69;;;14.19;100.00
24558;BME280;12726;49.148;8.582;2023-08-30T00:59:48;99727.28;;;14.18;100.00
24558;BME280;12726;49.148;8.582;2023-08-30T01:02:36;99716.97;;;14.15;100.00
24558;BME280;12726;49.148;8.582;2023-08-30T01:05:21;99714.00;;;14.17;100.00
24558;BME280;12726;49.148;8.582;2023-08-30T01:08:07;99714.00;;;14.17;100.00
24558;BME280;12726;49.148;8.582;2023-08-30T01:10:59;99708.59;;;14.17;100.00
24558;BME280;12726;49.148;8.582;2023-08-30T01:13:50;99711.06;;;14.18;100.00
24558;BME280;12726;49.148;8.582;2023-08-30T01:16:38;99708.34;;;14.18;100.00
24558;BME280;12726;49.148;8.582;2023-08-30T01:19:38;99706.22;;;14.20;100.00
24558;BME280;12726;49.148;8.582;2023-08-30T01:22:38;99712.44;;;14.21;100.00
24558;BME280;12726;49.148;8.582;2023-08-30T01:25:32;99708.66;;;14.22;100.00
24558;BME280;12726;49.148;8.582;2023-08-30T01:28:23;99704.88;;;14.23;100.00
24558;BME280;12726;49.148;8.582;2023-08-30T01:31:09;99705.44;;;14.25;100.00
24558;BME280;12726;49.148;8.582;2023-08-30T01:33:57;99705.75;;;14.28;100.00
24558;BME280;12726;49.148;8.582;2023-08-30T01:36:43;99700.84;;;14.25;100.00
24558;BME280;12726;49.148;8.582;2023-08-30T01:39:29;99698.13;;;14.25;100.00
24558;BME280;12726;49.148;8.582;2023-08-30T01:42:15;99700.31;;;14.28;100.00
24558;BME280;12726;49.148;8.582;2023-08-30T01:45:09;99707.66;;;14.28;100.00
24558;BME280;12726;49.148;8.582;2023-08-30T01:47:57;99699.06;;;14.36;100.00
24558;BME280;12726;49.148;8.582;2023-08-30T01:50:43;99694.41;;;14.31;100.00
24558;BME280;12726;49.148;8.582;2023-08-30T01:53:30;99690.06;;;14.30;100.00
24558;BME280;12726;49.148;8.582;2023-08-30T01:56:16;99691.13;;;14.29;100.00
24558;BME280;12726;49.148;8.582;2023-08-30T01:59:02;99691.47;;;14.33;100.00
24558;BME280;12726;49.148;8.582;2023-08-30T02:01:48;99687.59;;;14.29;100.00
24558;BME280;12726;49.148;8.582;2023-08-30T02:04:33;99678.75;;;14.33;100.00
24558;BME280;12726;49.148;8.582;2023-08-30T02:07:22;99681.44;;;14.33;100.00
24558;BME280;12726;49.148;8.582;2023-08-30T02:10:10;99679.03;;;14.37;100.00
24558;BME280;12726;49.148;8.582;2023-08-30T02:12:57;99686.28;;;14.31;100.00
24558;BME280;12726;49.148;8.582;2023-08-30T02:15:45;99680.09;;;14.36;100.00
24558;BME280;12726;49.148;8.582;2023-08-30T02:18:33;99687.75;;;14.39;100.00
24558;BME280;12726;49.148;8.582;2023-08-30T02:21:19;99690.06;;;14.30;100.00
24558;BME280;12726;49.148;8.582;2023-08-30T02:24:05;99683.91;;;14.35;100.00
24558;BME280;12726;49.148;8.582;2023-08-30T02:26:50;99693.78;;;14.24;100.00
24558;BME280;12726;49.148;8.582;2023-08-30T02:29:35;99693.53;;;14.26;100.00
24558;BME280;12726;49.148;8.582;2023-08-30T02:32:21;99692.72;;;14.25;100.00
24558;BME280;12726;49.148;8.582;2023-08-30T02:35:08;99691.84;;;14.20;100.00
24558;BME280;12726;49.148;8.582;2023-08-30T02:37:53;99692.59;;;14.15;100.00
24558;BME280;12726;49.148;8.582;2023-08-30T02:40:39;99698.84;;;14.16;100.00
24558;BME280;12726;49.148;8.582;2023-08-30T02:43:24;99691.78;;;14.15;100.00
24558;BME280;12726;49.148;8.582;2023-08-30T02:46:10;99697.19;;;14.15;100.00
24558;BME280;12726;49.148;8.582;2023-08-30T02:48:55;99691.53;;;14.16;100.00
24558;BME280;12726;49.148;8.582;2023-08-30T02:51:42;99691.03;;;14.19;100.00
24558;BME280;12726;49.148;8.582;2023-08-30T02:54:28;99691.53;;;14.16;100.00
24558;BME280;12726;49.148;8.582;2023-08-30T02:57:13;99698.34;;;14.19;100.00
24558;BME280;12726;49.148;8.582;2023-08-30T02:59:59;99695.38;;;14.20;100.00
24558;BME280;12726;49.148;8.582;2023-08-30T03:02:44;99694.00;;;14.18;100.00
24558;BME280;12726;49.148;8.582;2023-08-30T03:05:30;99693.50;;;14.21;100.00
24558;BME280;12726;49.148;8.582;2023-08-30T03:08:17;99699.16;;;14.19;100.00
24558;BME280;12726;49.148;8.582;2023-08-30T03:11:09;99682.09;;;14.19;100.00
24558;BME280;12726;49.148;8.582;2023-08-30T03:13:55;99677.50;;;14.19;100.00
24558;BME280;12726;49.148;8.582;2023-08-30T03:16:40;99682.97;;;14.24;100.00
24558;BME280;12726;49.148;8.582;2023-08-30T03:19:26;99686.78;;;14.28;100.00
24558;BME280;12726;49.148;8.582;2023-08-30T03:22:11;99687.56;;;14.24;100.00
24558;BME280;12726;49.148;8.582;2023-08-30T03:24:58;99684.59;;;14.25;100.00
24558;BME280;12726;49.148;8.582;2023-08-30T03:27:46;99675.91;;;14.23;100.00
24558;BME280;12726;49.148;8.582;2023-08-30T03:30:32;99685.44;;;14.26;100.00
24558;BME280;12726;49.148;8.582;2023-08-30T03:33:17;99689.69;;;14.22;100.00
24558;BME280;12726;49.148;8.582;2023-08-30T03:36:03;99694.88;;;14.23;100.00
24558;BME280;12726;49.148;8.582;2023-08-30T03:38:48;99690.22;;;14.19;100.00
24558;BME280;12726;49.148;8.582;2023-08-30T03:41:35;99693.50;;;14.21;100.00
24558;BME280;12726;49.148;8.582;2023-08-30T03:44:21;99689.41;;;14.18;100.00
24558;BME280;12726;49.148;8.582;2023-08-30T03:47:06;99686.38;;;14.15;100.00
24558;BME280;12726;49.148;8.582;2023-08-30T03:49:52;99685.28;;;14.16;100.00
24558;BME280;12726;49.148;8.582;2023-08-30T03:52:37;99683.34;;;14.11;100.00
24558;BME280;12726;49.148;8.582;2023-08-30T03:55:22;99679.50;;;14.07;100.00
24558;BME280;12726;49.148;8.582;2023-08-30T03:58:09;99684.75;;;14.14;100.00
24558;BME280;12726;49.148;8.582;2023-08-30T04:00:54;99678.81;;;14.17;100.00
24558;BME280;12726;49.148;8.582;2023-08-30T04:03:39;99688.25;;;14.14;100.00
24558;BME280;12726;49.148;8.582;2023-08-30T04:06:25;99687.19;;;14.15;100.00
24558;BME280;12726;49.148;8.582;2023-08-30T04:09:10;99689.06;;;14.15;100.00
24558;BME280;12726;49.148;8.582;2023-08-30T04:11:57;99690.22;;;14.19;100.00
24558;BME280;12726;49.148;8.582;2023-08-30T04:14:45;99693.13;;;14.12;100.00
24558;BME280;12726;49.148;8.582;2023-08-30T04:17:30;99684.91;;;14.07;100.00
24558;BME280;12726;49.148;8.582;2023-08-30T04:20:16;99681.66;;;14.05;100.00
24558;BME280;12726;49.148;8.582;2023-08-30T04:23:02;99691.44;;;14.06;100.00
24558;BME280;12726;49.148;8.582;2023-08-30T04:25:47;99697.34;;;14.03;100.00
24558;BME280;12726;49.148;8.582;2023-08-30T04:28:32;99685.94;;;14.01;100.00
24558;BME280;12726;49.148;8.582;2023-08-30T04:31:19;99683.75;;;13.98;100.00
24558;BME280;12726;49.148;8.582;2023-08-30T04:34:04;99678.59;;;13.96;100.00
24558;BME280;12726;49.148;8.582;2023-08-30T04:36:49;99682.09;;;13.97;100.00
24558;BME280;12726;49.148;8.582;2023-08-30T04:39:34;99683.41;;;13.94;100.00
24558;BME280;12726;49.148;8.582;2023-08-30T04:42:20;99688.59;;;13.96;100.00
24558;BME280;12726;49.148;8.582;2023-08-30T04:45:06;99684.28;;;14.00;100.00
24558;BME280;12726;49.148;8.582;2023-08-30T04:47:53;99681.88;;;13.98;100.00
24558;BME280;12726;49.148;8.582;2023-08-30T04:50:38;99681.59;;;14.00;100.00
24558;BME280;12726;49.148;8.582;2023-08-30T04:53:24;99679.16;;;13.98;100.00
24558;BME280;12726;49.148;8.582;2023-08-30T04:56:10;99684.38;;;14.05;100.00
24558;BME280;12726;49.148;8.582;2023-08-30T04:58:56;99684.91;;;14.07;100.00
24558;BME280;12726;49.148;8.582;2023-08-30T05:01:42;99678.72;;;14.06;100.00
24558;BME280;12726;49.148;8.582;2023-08-30T05:04:29;99685.75;;;14.07;100.00
24558;BME280;12726;49.148;8.582;2023-08-30T05:07:14;99691.47;;;14.11;100.00
24558;BME280;12726;49.148;8.582;2023-08-30T05:10:00;99685.28;;;14.16;100.00
24558;BME280;12726;49.148;8.582;2023-08-30T05:12:45;99678.03;;;14.21;100.00
24558;BME280;12726;49.148;8.582;2023-08-30T05:15:35;99682.97;;;14.24;100.00
24558;BME280;12726;49.148;8.582;2023-08-30T05:18:23;99680.31;;;14.29;100.00
24558;BME280;12726;49.148;8.582;2023-08-30T05:21:10;99682.53;;;14.32;100.00
24558;BME280;12726;49.148;8.582;2023-08-30T05:23:58;99684.16;;;14.33;100.00
24558;BME280;12726;49.148;8.582;2023-08-30T05:26:43;99691.09;;;14.46;100.00
24558;BME280;12726;49.148;8.582;2023-08-30T05:29:30;99680.28;;;14.51;100.00
24558;BME280;12726;49.148;8.582;2023-08-30T05:32:15;99679.22;;;14.52;100.00
24558;BME280;12726;49.148;8.582;2023-08-30T05:35:01;99677.59;;;14.51;100.00
24558;BME280;12726;49.148;8.582;2023-08-30T05:37:47;99682.53;;;14.59;100.00
24558;BME280;12726;49.148;8.582;2023-08-30T05:40:34;99684.47;;;14.64;100.00
24558;BME280;12726;49.148;8.582;2023-08-30T05:43:20;99685.38;;;14.69;100.00
24558;BME280;12726;49.148;8.582;2023-08-30T05:46:06;99688.97;;;14.80;100.00
24558;BME280;12726;49.148;8.582;2023-08-30T05:48:56;99686.25;;;14.80;100.00
24558;BME280;12726;49.148;8.582;2023-08-30T05:51:41;99680.09;;;14.84;100.00
24558;BME280;12726;49.148;8.582;2023-08-30T05:54:28;99694.72;;;14.83;100.00
24558;BME280;12726;49.148;8.582;2023-08-30T05:57:15;99679.78;;;14.81;100.00
24558;BME280;12726;49.148;8.582;2023-08-30T06:00:00;99681.97;;;14.84;100.00
24558;BME280;12726;49.148;8.582;2023-08-30T06:02:49;99686.28;;;14.85;100.00
24558;BME280;12726;49.148;8.582;2023-08-30T06:05:35;99672.28;;;14.93;100.00
24558;BME280;12726;49.148;8.582;2023-08-30T06:08:20;99672.06;;;15.00;100.00
24558;BME280;12726;49.148;8.582;2023-08-30T06:11:07;99677.47;;;15.00;100.00
24558;BME280;12726;49.148;8.582;2023-08-30T06:13:52;99676.47;;;15.06;100.00
24558;BME280;12726;49.148;8.582;2023-08-30T06:16:37;99686.50;;;15.05;100.00
24558;BME280;12726;49.148;8.582;2023-08-30T06:19:27;99680.63;;;15.18;100.00
24558;BME280;12726;49.148;8.582;2023-08-30T06:22:13;99683.94;;;15.25;100.00
24558;BME280;12726;49.148;8.582;2023-08-30T06:24:58;99687.50;;;15.31;100.00
24558;BME280;12726;49.148;8.582;2023-08-30T06:27:55;99682.88;;;15.32;100.00
24558;BME280;12726;49.148;8.582;2023-08-30T06:30:41;99690.22;;;15.36;100.00
24558;BME280;12726;49.148;8.582;2023-08-30T06:33:26;99682.97;;;15.47;100.00
24558;BME280;12726;49.148;8.582;2023-08-30T06:36:14;99689.75;;;15.49;100.00
24558;BME280;12726;49.148;8.582;2023-08-30T06:39:01;99683.88;;;15.57;100.00
24558;BME280;12726;49.148;8.582;2023-08-30T06:41:46;99691.28;;;15.67;100.00
24558;BME280;12726;49.148;8.582;2023-08-30T06:44:33;99700.50;;;15.66;100.00
24558;BME280;12726;49.148;8.582;2023-08-30T06:47:18;99686.69;;;15.73;100.00
24558;BME280;12726;49.148;8.582;2023-08-30T06:50:05;99687.47;;;15.68;100.00
24558;BME280;12726;49.148;8.582;2023-08-30T06:52:53;99693.50;;;15.80;100.00
24558;BME280;12726;49.148;8.582;2023-08-30T06:55:38;99693.84;;;15.99;100.00
24558;BME280;12726;49.148;8.582;2023-08-30T06:58:24;99683.38;;;16.23;97.62
24558;BME280;12726;49.148;8.582;2023-08-30T07:01:10;99675.88;;;16.60;96.70
24558;BME280;12726;49.148;8.582;2023-08-30T07:03:56;99673.19;;;16.96;93.88
24558;BME280;12726;49.148;8.582;2023-08-30T07:06:41;99674.25;;;17.20;90.54
24558;BME280;12726;49.148;8.582;2023-08-30T07:09:27;99669.31;;;17.52;90.48
24558;BME280;12726;49.148;8.582;2023-08-30T07:12:16;99684.00;;;17.67;87.60
24558;BME280;12726;49.148;8.582;2023-08-30T07:15:01;99681.47;;;17.95;87.09
24558;BME280;12726;49.148;8.582;2023-08-30T07:17:49;99679.13;;;18.28;86.65
24558;BME280;12726;49.148;8.582;2023-08-30T07:20:35;99674.97;;;18.40;82.65
24558;BME280;12726;49.148;8.582;2023-08-30T07:23:23;99671.59;;;18.64;81.70
24558;BME280;12726;49.148;8.582;2023-08-30T07:26:08;99676.59;;;18.47;80.99
24558;BME280;12726;49.148;8.582;2023-08-30T07:28:54;99665.25;;;18.73;81.11
24558;BME280;12726;49.148;8.582;2023-08-30T07:31:39;99666.34;;;18.72;79.23
24558;BME280;12726;49.148;8.582;2023-08-30T07:34:26;99668.75;;;18.79;79.18
24558;BME280;12726;49.148;8.582;2023-08-30T07:37:19;99661.75;;;19.02;79.02
24558;BME280;12726;49.148;8.582;2023-08-30T07:40:06;99657.81;;;19.13;77.67
24558;BME280;12726;49.148;8.582;2023-08-30T07:42:52;99659.50;;;19.09;76.79
24558;BME280;12726;49.148;8.582;2023-08-30T07:45:37;99655.56;;;19.20;76.97
24558;BME280;12726;49.148;8.582;2023-08-30T07:48:22;99662.13;;;19.53;76.04
24558;BME280;12726;49.148;8.582;2023-08-30T07:51:09;99654.97;;;19.81;74.11
24558;BME280;12726;49.148;8.582;2023-08-30T07:53:55;99658.38;;;19.91;74.59
24558;BME280;12726;49.148;8.582;2023-08-30T07:56:40;99658.13;;;20.12;72.55
24558;BME280;12726;49.148;8.582;2023-08-30T07:59:25;99659.56;;;20.04;70.48
24558;BME280;12726;49.148;8.582;2023-08-30T08:02:11;99661.69;;;20.31;70.80
24558;BME280;12726;49.148;8.582;2023-08-30T08:04:56;99662.56;;;20.26;70.02
24558;BME280;12726;49.148;8.582;2023-08-30T08:07:43;99652.16;;;20.10;69.58
24558;BME280;12726;49.148;8.582;2023-08-30T08:10:28;99661.00;;;20.02;69.22
24558;BME280;12726;49.148;8.582;2023-08-30T08:13:16;99656.72;;;19.96;70.37
24558;BME280;12726;49.148;8.582;2023-08-30T08:16:04;99663.00;;;19.96;69.68
24558;BME280;12726;49.148;8.582;2023-08-30T08:18:49;99668.16;;;20.40;69.27
24558;BME280;12726;49.148;8.582;2023-08-30T08:21:36;99671.53;;;20.69;68.41
24558;BME280;12726;49.148;8.582;2023-08-30T08:24:22;99656.53;;;20.86;67.59
24558;BME280;12726;49.148;8.582;2023-08-30T08:27:10;99670.97;;;21.05;66.58
24558;BME280;12726;49.148;8.582;2023-08-30T08:29:56;99665.06;;;20.98;66.41
24558;BME280;12726;49.148;8.582;2023-08-30T08:32:41;99660.81;;;20.92;64.91
24558;BME280;12726;49.148;8.582;2023-08-30T08:35:26;99667.25;;;20.82;64.91
24558;BME280;12726;49.148;8.582;2023-08-30T08:38:12;99671.34;;;20.66;65.88
24558;BME280;12726;49.148;8.582;2023-08-30T08:41:04;99672.50;;;21.11;65.27
24558;BME280;12726;49.148;8.582;2023-08-30T08:43:50;99669.44;;;20.99;65.04
24558;BME280;12726;49.148;8.582;2023-08-30T08:46:36;99680.44;;;21.13;66.85
24558;BME280;12726;49.148;8.582;2023-08-30T08:49:22;99667.91;;;20.93;65.08
24558;BME280;12726;49.148;8.582;2023-08-30T08:52:13;99670.66;;;21.25;65.15
24558;BME280;12726;49.148;8.582;2023-08-30T08:54:59;99676.94;;;21.26;64.70
24558;BME280;12726;49.148;8.582;2023-08-30T08:57:48;99668.28;;;21.51;65.13
24558;BME280;12726;49.148;8.582;2023-08-30T09:00:34;99684.63;;;21.83;64.61
24558;BME280;12726;49.148;8.582;2023-08-30T09:03:27;99684.16;;;22.09;64.32
24558;BME280;12726;49.148;8.582;2023-08-30T09:06:12;99680.78;;;21.84;62.72
24558;BME280;12726;49.148;8.582;2023-08-30T09:08:57;99691.97;;;22.15;62.85
24558;BME280;12726;49.148;8.582;2023-08-30T09:11:49;99680.50;;;21.86;63.19
24558;BME280;12726;49.148;8.582;2023-08-30T09:14:35;99686.97;;;21.76;62.78
24558;BME280;12726;49.148;8.582;2023-08-30T09:17:23;99684.75;;;21.65;62.70
24558;BME280;12726;49.148;8.582;2023-08-30T09:20:10;99679.25;;;21.65;64.90
24558;BME280;12726;49.148;8.582;2023-08-30T09:22:55;99679.44;;;21.55;63.84
24558;BME280;12726;49.148;8.582;2023-08-30T09:25:40;99674.59;;;21.52;63.96
24558;BME280;12726;49.148;8.582;2023-08-30T09:28:26;99687.84;;;21.44;63.25
24558;BME280;12726;49.148;8.582;2023-08-30T09:31:18;99676.78;;;21.36;63.15
24558;BME280;12726;49.148;8.582;2023-08-30T09:34:04;99668.19;;;21.56;63.17
24558;BME280;12726;49.148;8.582;2023-08-30T09:36:50;99666.78;;;22.27;61.65
24558;BME280;12726;49.148;8.582;2023-08-30T09:39:35;99669.34;;;22.46;61.15
24558;BME280;12726;49.148;8.582;2023-08-30T09:42:22;99666.22;;;22.39;59.41
24558;BME280;12726;49.148;8.582;2023-08-30T09:45:17;99655.97;;;22.44;58.89
24558;BME280;12726;49.148;8.582;2023-08-30T09:48:05;99655.84;;;22.85;58.63
24558;BME280;12726;49.148;8.582;2023-08-30T09:50:54;99659.19;;;23.27;56.97
24558;BME280;12726;49.148;8.582;2023-08-30T09:53:42;99665.00;;;23.03;57.61
24558;BME280;12726;49.148;8.582;2023-08-30T09:56:29;99653.84;;;22.77;57.02
24558;BME280;12726;49.148;8.582;2023-08-30T09:59:17;99661.66;;;22.48;57.26
24558;BME280;12726;49.148;8.582;2023-08-30T10:02:03;99666.34;;;22.34;57.31
24558;BME280;12726;49.148;8.582;2023-08-30T10:04:50;99662.16;;;22.50;57.25
24558;BME280;12726;49.148;8.582;2023-08-30T10:07:38;99659.91;;;22.52;57.30
24558;BME280;12726;49.148;8.582;2023-08-30T10:10:24;99654.66;;;22.42;56.99
24558;BME280;12726;49.148;8.582;2023-08-30T10:13:10;99651.69;;;22.38;55.78
24558;BME280;12726;49.148;8.582;2023-08-30T10:16:00;99650.53;;;22.53;56.73
24558;BME280;12726;49.148;8.582;2023-08-30T10:18:50;99650.91;;;22.38;57.40
24558;BME280;12726;49.148;8.582;2023-08-30T10:21:39;99646.94;;;22.44;58.37
24558;BME280;12726;49.148;8.582;2023-08-30T10:24:26;99637.03;;;22.20;57.23
24558;BME280;12726;49.148;8.582;2023-08-30T10:27:14;99635.72;;;22.54;59.10
24558;BME280;12726;49.148;8.582;2023-08-30T10:30:02;99638.19;;;23.00;57.71
24558;BME280;12726;49.148;8.582;2023-08-30T10:32:49;99628.63;;;23.20;56.16
24558;BME280;12726;49.148;8.582;2023-08-30T10:35:34;99633.75;;;23.13;56.36
24558;BME280;12726;49.148;8.582;2023-08-30T10:38:28;99628.97;;;23.49;55.86
24558;BME280;12726;49.148;8.582;2023-08-30T10:41:20;99631.31;;;23.42;55.61
24558;BME280;12726;49.148;8.582;2023-08-30T10:44:05;99623.97;;;24.16;55.97
24558;BME280;12726;49.148;8.582;2023-08-30T10:46:54;99619.28;;;24.08;56.10
24558;BME280;12726;49.148;8.582;2023-08-30T10:49:42;99630.72;;;23.85;54.91
24558;BME280;12726;49.148;8.582;2023-08-30T10:52:27;99614.25;;;24.10;54.58
24558;BME280;12726;49.148;8.582;2023-08-30T10:55:15;99621.56;;;24.06;55.11
24558;BME280;12726;49.148;8.582;2023-08-30T10:58:01;99622.69;;;24.14;55.02
24558;BME280;12726;49.148;8.582;2023-08-30T11:00:48;99612.88;;;24.47;53.71
24558;BME280;12726;49.148;8.582;2023-08-30T11:03:35;99608.66;;;24.24;53.84
24558;BME280;12726;49.148;8.582;2023-08-30T11:06:21;99593.72;;;24.16;55.34
24558;BME280;12726;49.148;8.582;2023-08-30T11:09:09;99593.28;;;24.40;55.07
24558;BME280;12726;49.148;8.582;2023-08-30T11:11:56;99588.88;;;24.13;55.11
24558;BME280;12726;49.148;8.582;2023-08-30T11:14:51;99584.50;;;24.12;54.76
24558;BME280;12726;49.148;8.582;2023-08-30T11:17:37;99583.66;;;23.95;55.81
24558;BME280;12726;49.148;8.582;2023-08-30T11:20:24;99581.84;;;23.81;54.43
24558;BME280;12726;49.148;8.582;2023-08-30T11:23:10;99579.16;;;24.07;54.07
24558;BME280;12726;49.148;8.582;2023-08-30T11:25:55;99570.59;;;24.17;54.34
24558;BME280;12726;49.148;8.582;2023-08-30T11:28:43;99563.84;;;24.32;52.60
24558;BME280;12726;49.148;8.582;2023-08-30T11:31:32;99562.53;;;24.38;52.00
24558;BME280;12726;49.148;8.582;2023-08-30T11:34:20;99560.59;;;24.47;51.66
24558;BME280;12726;49.148;8.582;2023-08-30T11:37:07;99563.31;;;24.73;52.26
24558;BME280;12726;49.148;8.582;2023-08-30T11:39:53;99554.41;;;24.68;51.09
24558;BME280;12726;49.148;8.582;2023-08-30T11:42:38;99537.28;;;24.62;52.01
24558;BME280;12726;49.148;8.582;2023-08-30T11:45:27;99550.88;;;24.15;52.83
24558;BME280;12726;49.148;8.582;2023-08-30T11:48:13;99545.53;;;24.45;53.58
24558;BME280;12726;49.148;8.582;2023-08-30T11:50:58;99553.91;;;24.66;50.25
24558;BME280;12726;49.148;8.582;2023-08-30T11:53:44;99552.84;;;24.32;50.74
24558;BME280;12726;49.148;8.582;2023-08-30T11:56:30;99553.00;;;24.36;52.37
24558;BME280;12726;49.148;8.582;2023-08-30T11:59:19;99542.91;;;24.74;51.98
24558;BME280;12726;49.148;8.582;2023-08-30T12:02:07;99548.09;;;23.98;51.11
24558;BME280;12726;49.148;8.582;2023-08-30T12:04:52;99545.44;;;23.67;54.22
24558;BME280;12726;49.148;8.582;2023-08-30T12:07:37;99545.38;;;24.33;52.47
24558;BME280;12726;49.148;8.582;2023-08-30T12:10:24;99541.78;;;24.75;52.87
24558;BME280;12726;49.148;8.582;2023-08-30T12:13:19;99541.25;;;25.08;52.78
24558;BME280;12726;49.148;8.582;2023-08-30T12:16:04;99530.59;;;25.65;51.55
24558;BME280;12726;49.148;8.582;2023-08-30T12:18:51;99531.81;;;25.47;49.04
24558;BME280;12726;49.148;8.582;2023-08-30T12:21:41;99537.56;;;25.71;51.00
24558;BME280;12726;49.148;8.582;2023-08-30T12:24:26;99532.84;;;24.95;48.63
24558;BME280;12726;49.148;8.582;2023-08-30T12:27:12;99527.25;;;24.57;52.04
24558;BME280;12726;49.148;8.582;2023-08-30T12:29:57;99526.41;;;23.79;52.30
24558;BME280;12726;49.148;8.582;2023-08-30T12:32:43;99530.81;;;24.06;53.38
24558;BME280;12726;49.148;8.582;2023-08-30T12:35:30;99524.44;;;23.63;52.95
24558;BME280;12726;49.148;8.582;2023-08-30T12:38:15;99526.59;;;23.92;53.81
24558;BME280;12726;49.148;8.582;2023-08-30T12:41:02;99527.19;;;23.63;53.05
24558;BME280;12726;49.148;8.582;2023-08-30T12:43:47;99525.44;;;23.75;50.38
24558;BME280;12726;49.148;8.582;2023-08-30T12:46:33;99514.13;;;24.11;51.33
24558;BME280;12726;49.148;8.582;2023-08-30T12:49:18;99527.75;;;24.08;51.09
24558;BME280;12726;49.148;8.582;2023-08-30T12:52:05;99513.47;;;23.71;50.04
24558;BME280;12726;49.148;8.582;2023-08-30T12:54:54;99515.06;;;23.64;50.48
24558;BME280;12726;49.148;8.582;2023-08-30T12:57:39;99514.47;;;23.93;51.19
24558;BME280;12726;49.148;8.582;2023-08-30T13:00:24;99515.72;;;23.69;49.36
24558;BME280;12726;49.148;8.582;2023-08-30T13:03:10;99516.75;;;23.42;51.02
24558;BME280;12726;49.148;8.582;2023-08-30T13:05:55;99521.56;;;23.28;51.13
24558;BME280;12726;49.148;8.582;2023-08-30T13:08:43;99513.47;;;23.32;49.26
24558;BME280;12726;49.148;8.582;2023-08-30T13:11:29;99507.28;;;23.57;50.84
24558;BME280;12726;49.148;8.582;2023-08-30T13:14:19;99512.63;;;23.62;48.33
24558;BME280;12726;49.148;8.582;2023-08-30T13:17:04;99502.75;;;23.61;48.62
24558;BME280;12726;49.148;8.582;2023-08-30T13:19:50;99493.75;;;23.95;49.84
24558;BME280;12726;49.148;8.582;2023-08-30T13:22:35;99494.56;;;23.78;47.99
24558;BME280;12726;49.148;8.582;2023-08-30T13:25:22;99496.31;;;23.74;50.37
24558;BME280;12726;49.148;8.582;2023-08-30T13:28:07;99503.41;;;23.67;49.13
24558;BME280;12726;49.148;8.582;2023-08-30T13:30:52;99489.06;;;23.96;49.02
24558;BME280;12726;49.148;8.582;2023-08-30T13:33:37;99493.09;;;23.81;49.14
24558;BME280;12726;49.148;8.582;2023-08-30T13:36:24;99473.06;;;23.72;47.42
24558;BME280;12726;49.148;8.582;2023-08-30T13:39:09;99476.53;;;23.47;48.09
24558;BME280;12726;49.148;8.582;2023-08-30T13:41:56;99479.41;;;23.33;49.82
24558;BME280;12726;49.148;8.582;2023-08-30T13:44:41;99476.53;;;23.47;49.83
24558;BME280;12726;49.148;8.582;2023-08-30T13:47:27;99478.97;;;23.48;50.23
24558;BME280;12726;49.148;8.582;2023-08-30T13:50:13;99479.16;;;23.52;49.54
24558;BME280;12726;49.148;8.582;2023-08-30T13:52:58;99473.28;;;23.36;49.18
24558;BME280;12726;49.148;8.582;2023-08-30T13:55:45;99480.38;;;23.46;49.65
24558;BME280;12726;49.148;8.582;2023-08-30T13:58:33;99473.94;;;23.41;48.74
24558;BME280;12726;49.148;8.582;2023-08-30T14:01:21;99466.94;;;23.27;48.40
24558;BME280;12726;49.148;8.582;2023-08-30T14:04:07;99482.16;;;23.33;48.35
24558;BME280;12726;49.148;8.582;2023-08-30T14:06:52;99476.16;;;23.22;48.14
24558;BME280;12726;49.148;8.582;2023-08-30T14:09:37;99479.78;;;23.00;46.93
24558;BME280;12726;49.148;8.582;2023-08-30T14:12:23;99472.69;;;22.99;48.39
24558;BME280;12726;49.148;8.582;2023-08-30T14:15:09;99473.03;;;23.07;49.09
24558;BME280;12726;49.148;8.582;2023-08-30T14:17:55;99478.97;;;23.00;48.72
24558;BME280;12726;49.148;8.582;2023-08-30T14:20:40;99479.91;;;22.95;49.59
24558;BME280;12726;49.148;8.582;2023-08-30T14:23:26;99472.53;;;23.04;51.37
24558;BME280;12726;49.148;8.582;2023-08-30T14:26:12;99483.09;;;22.80;50.17
24558;BME280;12726;49.148;8.582;2023-08-30T14:28:57;99478.28;;;22.86;49.71
24558;BME280;12726;49.148;8.582;2023-08-30T14:31:44;99467.66;;;22.93;50.13
24558;BME280;12726;49.148;8.582;2023-08-30T14:34:29;99478.44;;;22.89;51.29
24558;BME280;12726;49.148;8.582;2023-08-30T14:37:15;99488.50;;;23.02;50.39